createdAt,value
2022-07-29T00:01:20.117Z,101872.97
2022-07-29T00:06:22.995Z,101859.16
2022-07-29T00:11:26.038Z,101851.34
2022-07-29T00:16:30.342Z,101861.03
2022-07-29T00:21:33.204Z,101859.78
2022-07-29T00:26:36.179Z,101841.03
2022-07-29T00:31:40.507Z,101854.66
2022-07-29T00:36:43.589Z,101844.75
2022-07-29T00:41:46.418Z,101851.50
2022-07-29T00:46:50.737Z,101841.06
2022-07-29T00:51:53.689Z,101841.34
2022-07-29T00:56:57.002Z,101822.94
2022-07-29T01:02:01.313Z,101820.63
2022-07-29T01:07:04.979Z,101822.81
2022-07-29T01:12:08.851Z,101825.75
2022-07-29T01:17:18.491Z,101821.28
2022-07-29T01:22:29.124Z,101811.56
2022-07-29T01:28:08.936Z,101823.16
2022-07-29T01:33:38.952Z,101831.16
2022-07-29T01:38:46.566Z,101810.91
2022-07-29T01:43:53.702Z,101805.88
2022-07-29T01:49:02.354Z,101811.94
2022-07-29T01:54:10.770Z,101802.72
2022-07-29T01:59:13.885Z,101797.69
2022-07-29T02:04:19.155Z,101793.88
2022-07-29T02:09:34.331Z,101788.13
2022-07-29T02:14:47.410Z,101775.59
2022-07-29T02:19:52.343Z,101782.19
2022-07-29T02:24:57.948Z,101789.53
2022-07-29T02:30:03.027Z,101781.13
2022-07-29T02:35:09.696Z,101781.25
2022-07-29T02:40:13.856Z,101782.97
2022-07-29T02:45:17.020Z,101782.16
2022-07-29T02:50:24.799Z,101773.06
2022-07-29T02:55:32.692Z,101777.28
2022-07-29T03:00:39.480Z,101774.91
2022-07-29T03:05:43.733Z,101775.63
2022-07-29T03:10:48.095Z,101775.72
2022-07-29T03:15:51.398Z,101767.50
2022-07-29T03:20:56.261Z,101766.59
2022-07-29T03:25:59.088Z,101769.19
2022-07-29T03:31:01.924Z,101770.63
2022-07-29T03:36:06.536Z,101780.38
2022-07-29T03:41:12.249Z,101741.69
2022-07-29T03:46:16.498Z,101773.84
2022-07-29T03:51:33.322Z,101761.84
2022-07-29T03:56:40.533Z,101763.19
2022-07-29T04:01:43.962Z,101762.88
2022-07-29T04:06:48.594Z,101750.22
2022-07-29T04:12:01.465Z,101753.88
2022-07-29T04:17:07.124Z,101763.06
2022-07-29T04:22:11.348Z,101759.31
2022-07-29T04:27:16.287Z,101743.56
2022-07-29T04:32:19.169Z,101756.47
2022-07-29T04:37:23.444Z,101761.91
2022-07-29T04:42:27.785Z,101757.44
2022-07-29T04:47:32.331Z,101755.16
2022-07-29T04:52:36.677Z,101760.06
2022-07-29T04:57:39.456Z,101762.59
2022-07-29T05:02:42.434Z,101754.47
2022-07-29T05:07:46.674Z,101750.00
2022-07-29T05:12:50.619Z,101749.91
2022-07-29T05:17:53.488Z,101736.31
2022-07-29T05:22:58.524Z,101747.03
2022-07-29T05:28:01.493Z,101747.22
2022-07-29T05:33:04.372Z,101749.66
2022-07-29T05:38:08.562Z,101754.22
2022-07-29T05:43:11.397Z,101757.00
2022-07-29T05:48:14.283Z,101759.56
2022-07-29T05:53:19.118Z,101765.44
2022-07-29T05:58:23.265Z,101761.44
2022-07-29T06:03:26.032Z,101760.78
2022-07-29T06:08:30.255Z,101766.97
2022-07-29T06:13:33.273Z,101728.44
2022-07-29T06:18:36.087Z,101764.84
2022-07-29T06:23:41.080Z,101742.81
2022-07-29T06:28:43.942Z,101767.28
2022-07-29T06:33:46.745Z,101764.06
2022-07-29T06:38:52.043Z,101750.25
2022-07-29T06:43:55.341Z,101774.50
2022-07-29T06:49:01.579Z,101776.88
2022-07-29T06:54:06.625Z,101776.44
2022-07-29T06:59:10.765Z,101774.00
2022-07-29T07:04:14.562Z,101776.13
2022-07-29T07:09:19.283Z,101771.41
2022-07-29T07:14:30.366Z,101778.34
2022-07-29T07:19:33.508Z,101780.44
2022-07-29T07:24:38.873Z,101784.88
2022-07-29T07:29:44.125Z,101773.66
2022-07-29T07:34:47.293Z,101774.88
2022-07-29T07:39:51.467Z,101773.06
2022-07-29T07:45:12.658Z,101785.75
2022-07-29T07:50:19.183Z,101788.03
2022-07-29T07:55:23.821Z,101766.75
2022-07-29T08:00:26.683Z,101782.13
2022-07-29T08:05:29.560Z,101789.97
2022-07-29T08:10:51.986Z,101775.47
2022-07-29T08:15:59.955Z,101765.66
2022-07-29T08:21:02.790Z,101765.06
2022-07-29T08:26:11.241Z,101758.00
2022-07-29T08:31:15.097Z,101764.78
2022-07-29T08:36:18.090Z,101764.94
2022-07-29T08:41:22.381Z,101778.59
2022-07-29T08:46:25.921Z,101773.41
2022-07-29T08:51:29.722Z,101780.88
2022-07-29T08:56:34.351Z,101774.94
2022-07-29T09:01:42.886Z,101769.66
2022-07-29T09:06:50.281Z,101767.22
2022-07-29T09:11:55.048Z,101759.59
2022-07-29T09:16:58.538Z,101773.81
2022-07-29T09:22:03.866Z,101784.84
2022-07-29T09:27:20.822Z,101767.66
2022-07-29T09:32:23.680Z,101768.97
2022-07-29T09:37:30.512Z,101771.72
2022-07-29T09:42:34.825Z,101766.69
2022-07-29T09:47:45.864Z,101761.78
2022-07-29T09:52:50.790Z,101757.53
2022-07-29T09:57:55.378Z,101756.63
2022-07-29T10:03:03.488Z,101745.47
2022-07-29T10:08:07.158Z,101752.56
2022-07-29T10:13:15.663Z,101742.34
2022-07-29T10:18:20.895Z,101739.78
2022-07-29T10:23:23.693Z,101746.06
2022-07-29T10:28:28.322Z,101738.31
2022-07-29T10:33:43.588Z,101746.03
2022-07-29T10:38:51.421Z,101747.00
2022-07-29T10:43:57.614Z,101747.97
2022-07-29T10:49:08.070Z,101750.75
2022-07-29T10:54:11.047Z,101758.00
2022-07-29T10:59:36.118Z,101739.06
2022-07-29T11:05:02.200Z,101740.66
2022-07-29T11:10:31.028Z,101746.97
2022-07-29T11:15:54.543Z,101737.38
2022-07-29T11:20:58.256Z,101719.88
2022-07-29T11:26:25.807Z,101740.59
2022-07-29T11:31:39.293Z,101733.53
2022-07-29T11:37:17.691Z,101746.69
2022-07-29T11:42:42.012Z,101748.50
2022-07-29T11:48:05.336Z,101746.16
2022-07-29T11:53:22.247Z,101744.53
2022-07-29T11:58:25.995Z,101743.50
2022-07-29T12:03:35.157Z,101725.31
2022-07-29T12:08:43.795Z,101731.19
2022-07-29T12:13:46.984Z,101738.44
2022-07-29T12:19:00.079Z,101745.19
2022-07-29T12:24:08.795Z,101743.16
2022-07-29T12:29:20.087Z,101749.59
2022-07-29T12:34:38.022Z,101706.03
2022-07-29T12:39:41.220Z,101741.44
2022-07-29T12:44:48.632Z,101737.38
2022-07-29T12:49:53.360Z,101735.38
2022-07-29T12:54:56.199Z,101720.13
2022-07-29T13:00:03.944Z,101731.81
2022-07-29T13:05:10.197Z,101735.22
2022-07-29T13:10:15.882Z,101719.22
2022-07-29T13:15:20.509Z,101732.38
2022-07-29T13:20:30.498Z,101735.97
2022-07-29T13:25:35.346Z,101735.75
2022-07-29T13:30:38.664Z,101733.75
2022-07-29T13:35:49.519Z,101729.59
2022-07-29T13:40:52.728Z,101719.09
2022-07-29T13:45:55.700Z,101718.84
2022-07-29T13:51:00.982Z,101729.25
2022-07-29T13:56:03.884Z,101722.19
2022-07-29T14:01:06.806Z,101721.22
2022-07-29T14:06:11.149Z,101724.97
2022-07-29T14:11:14.003Z,101727.28
2022-07-29T14:16:18.991Z,101713.44
2022-07-29T14:21:23.258Z,101723.16
2022-07-29T14:26:28.570Z,101722.22
2022-07-29T14:31:31.628Z,101718.13
2022-07-29T14:36:35.983Z,101722.22
2022-07-29T14:41:39.114Z,101716.38
2022-07-29T14:46:42.292Z,101698.22
2022-07-29T14:51:52.108Z,101710.63
2022-07-29T14:56:57.929Z,101714.84
2022-07-29T15:02:01.476Z,101718.06
2022-07-29T15:07:06.185Z,101718.50
2022-07-29T15:12:11.382Z,101723.31
2022-07-29T15:17:14.327Z,101724.63
2022-07-29T15:22:18.634Z,101721.66
2022-07-29T15:27:21.516Z,101715.69
2022-07-29T15:32:24.355Z,101716.31
2022-07-29T15:37:29.315Z,101714.25
2022-07-29T15:42:53.999Z,101704.88
2022-07-29T15:47:56.855Z,101705.00
2022-07-29T15:53:01.292Z,101709.13
2022-07-29T15:58:04.348Z,101716.22
2022-07-29T16:03:14.229Z,101718.50
2022-07-29T16:08:18.371Z,101691.84
2022-07-29T16:13:21.228Z,101697.56
2022-07-29T16:18:29.816Z,101676.34
2022-07-29T16:23:34.819Z,101693.66
2022-07-29T16:28:37.660Z,101702.19
2022-07-29T16:33:54.851Z,101710.84
2022-07-29T16:39:00.291Z,101694.50
2022-07-29T16:44:03.291Z,101719.97
2022-07-29T16:49:06.320Z,101720.81
2022-07-29T16:54:10.964Z,101724.13
2022-07-29T16:59:13.829Z,101730.91
2022-07-29T17:04:16.660Z,101726.22
2022-07-29T17:09:21.081Z,101728.72
2022-07-29T17:14:25.533Z,101727.44
2022-07-29T17:19:28.388Z,101730.78
2022-07-29T17:24:32.509Z,101733.34
2022-07-29T17:29:35.961Z,101733.19
2022-07-29T17:34:43.484Z,101743.56
2022-07-29T17:39:48.315Z,101736.72
2022-07-29T17:44:55.811Z,101733.75
2022-07-29T17:49:59.782Z,101732.50
2022-07-29T17:55:04.002Z,101734.50
2022-07-29T18:00:08.595Z,101725.81
2022-07-29T18:05:11.586Z,101745.28
2022-07-29T18:10:15.802Z,101735.03
2022-07-29T18:15:18.683Z,101737.69
2022-07-29T18:20:21.545Z,101745.31
2022-07-29T18:25:26.608Z,101753.31
2022-07-29T18:30:29.596Z,101747.31
2022-07-29T18:35:33.709Z,101752.41
2022-07-29T18:40:39.951Z,101727.59
2022-07-29T18:45:42.775Z,101757.59
2022-07-29T18:50:45.577Z,101766.25
2022-07-29T18:55:49.740Z,101768.94
2022-07-29T19:00:52.610Z,101772.13
2022-07-29T19:05:55.473Z,101771.53
2022-07-29T19:11:02.452Z,101750.91
2022-07-29T19:16:06.115Z,101800.38
2022-07-29T19:21:09.107Z,101798.31
2022-07-29T19:26:13.291Z,101814.72
2022-07-29T19:31:23.706Z,101746.19
2022-07-29T19:36:27.275Z,101831.66
2022-07-29T19:41:31.650Z,101835.38
2022-07-29T19:46:34.663Z,101825.19
2022-07-29T19:51:37.647Z,101843.75
2022-07-29T19:56:42.241Z,101848.91
2022-07-29T20:01:45.261Z,101851.47
2022-07-29T20:06:53.088Z,101856.25
2022-07-29T20:11:58.313Z,101861.59
2022-07-29T20:17:01.490Z,101834.66
2022-07-29T20:22:05.885Z,101858.03
2022-07-29T20:27:13.642Z,101854.88
2022-07-29T20:32:19.373Z,101856.38
2022-07-29T20:37:22.213Z,101865.28
2022-07-29T20:42:26.361Z,101863.78
2022-07-29T20:47:31.756Z,101862.25
2022-07-29T20:52:34.747Z,101862.72
2022-07-29T20:57:40.011Z,101863.72
2022-07-29T21:02:43.057Z,101867.28
2022-07-29T21:07:45.857Z,101862.97
2022-07-29T21:12:49.974Z,101860.28
2022-07-29T21:18:00.504Z,101864.78
2022-07-29T21:23:03.338Z,101858.22
2022-07-29T21:28:25.301Z,101858.78
2022-07-29T21:33:30.407Z,101862.16
2022-07-29T21:38:33.898Z,101857.84
2022-07-29T21:43:38.216Z,101860.44
2022-07-29T21:48:45.353Z,101849.81
2022-07-29T21:53:48.245Z,101850.34
2022-07-29T21:58:54.661Z,101848.31
2022-07-29T22:03:58.033Z,101852.06
2022-07-29T22:09:03.475Z,101851.53
2022-07-29T22:14:08.023Z,101842.66
2022-07-29T22:19:10.835Z,101853.38
2022-07-29T22:24:13.610Z,101863.53
2022-07-29T22:29:18.891Z,101854.78
2022-07-29T22:34:21.729Z,101868.31
2022-07-29T22:39:25.129Z,101860.69
2022-07-29T22:44:29.264Z,101860.53
2022-07-29T22:49:32.501Z,101875.41
2022-07-29T22:54:35.285Z,101877.69
2022-07-29T22:59:40.436Z,101882.50
2022-07-29T23:04:43.847Z,101885.66
2022-07-29T23:09:46.655Z,101884.50
2022-07-29T23:14:51.932Z,101879.63
2022-07-29T23:19:54.749Z,101881.19
2022-07-29T23:24:57.505Z,101877.16
2022-07-29T23:30:01.620Z,101881.16
2022-07-29T23:35:06.878Z,101873.91
2022-07-29T23:40:14.496Z,101878.59
2022-07-29T23:45:19.008Z,101871.56
2022-07-29T23:50:21.814Z,101866.69
2022-07-29T23:55:36.710Z,101874.97
